Time;durP1;ratioP1;P1;durP2;ratioP2;P2;SDS_P1;SDS_P2;PMS_P1;PMS_P2;Temp;Humidity;BMP_temperature;BMP_pressure;BME280_temperature;BME280_humidity;BME280_pressure;Samples;Min_cycle;Max_cycle;Signal;HPM_P1;HPM_P2
2022/09/17 00:00:39;;;;;;;;;1.00;1.00;;;;;13.23;56.69;101684.66;5059514;28;45318;-93
2022/09/17 00:03:04;;;;;;;;;1.50;0.00;;;;;13.19;57.10;101685.63;5045393;28;45505;-93
2022/09/17 00:05:30;;;;;;;;;2.00;1.00;;;;;13.18;56.78;101679.53;5080718;28;46335;-93
2022/09/17 00:07:55;;;;;;;;;2.00;2.00;;;;;13.15;56.28;101684.00;5062356;28;45368;-94
2022/09/17 00:10:22;;;;;;;;;3.00;2.00;;;;;13.05;57.08;101688.56;5062837;28;45639;-94
2022/09/17 00:12:47;;;;;;;;;2.00;2.00;;;;;12.98;57.53;101682.66;5080590;28;45178;-93
2022/09/17 00:15:13;;;;;;;;;1.00;1.00;;;;;12.92;57.53;101674.09;5062730;28;45316;-94
2022/09/17 00:17:39;;;;;;;;;2.50;2.00;;;;;12.85;57.99;101678.63;5062568;28;46024;-94
2022/09/17 00:20:10;;;;;;;;;1.75;1.00;;;;;12.79;58.02;101682.19;5062738;28;45337;-92
2022/09/17 00:22:36;;;;;;;;;1.25;1.00;;;;;12.81;58.42;101681.31;5079446;28;45603;-93
2022/09/17 00:25:02;;;;;;;;;2.75;1.50;;;;;12.82;58.38;101683.91;5080342;28;46158;-93
2022/09/17 00:27:28;;;;;;;;;1.50;1.50;;;;;12.79;58.42;101681.34;5062305;28;45676;-93
2022/09/17 00:29:53;;;;;;;;;2.00;2.00;;;;;12.73;58.67;101682.34;5062654;28;45316;-93
2022/09/17 00:32:18;;;;;;;;;2.00;1.00;;;;;12.71;58.79;101685.91;5064815;27;45354;-92
2022/09/17 00:34:45;;;;;;;;;1.75;1.75;;;;;12.70;59.19;101689.41;5082732;27;45321;-93
2022/09/17 00:37:11;;;;;;;;;1.75;1.75;;;;;12.69;59.39;101683.31;5082829;27;45619;-93
2022/09/17 00:39:36;;;;;;;;;1.00;1.00;;;;;12.68;58.70;101688.56;5100930;27;45313;-93
2022/09/17 00:42:07;;;;;;;;;3.00;2.00;;;;;12.67;59.10;101692.94;5082789;27;45428;-93
2022/09/17 00:44:49;;;;;;;;;1.00;1.00;;;;;12.67;59.10;101692.09;5083125;27;46355;-93
2022/09/17 00:47:22;;;;;;;;;2.00;2.00;;;;;12.63;59.07;101683.47;5100372;27;45372;-93
2022/09/17 00:49:51;;;;;;;;;2.75;1.00;;;;;12.64;58.86;101686.94;5082793;27;45449;-94
2022/09/17 00:52:25;;;;;;;;;1.25;1.00;;;;;12.61;59.16;101674.81;5065611;27;45357;-93
2022/09/17 00:54:59;;;;;;;;;1.00;0.25;;;;;12.57;58.74;101681.84;5082237;27;45459;-93
2022/09/17 00:57:25;;;;;;;;;1.00;1.00;;;;;12.54;58.61;101686.28;5069068;28;45759;-93
2022/09/17 00:59:51;;;;;;;;;1.50;1.50;;;;;12.52;59.43;101686.31;5061788;28;45388;-93
2022/09/17 01:02:16;;;;;;;;;1.00;1.00;;;;;12.50;58.89;101682.88;5062285;28;45355;-93
2022/09/17 01:04:42;;;;;;;;;1.00;1.00;;;;;12.48;59.18;101684.66;5061680;28;47199;-94
2022/09/17 01:07:39;;;;;;;;;2.50;2.00;;;;;12.45;59.17;101687.34;5061080;28;60309;-93
2022/09/17 01:10:19;;;;;;;;;3.00;2.50;;;;;12.45;59.66;101687.34;5061717;28;45260;-93
2022/09/17 01:13:08;;;;;;;;;3.00;1.00;;;;;12.44;59.49;101695.19;5062141;28;45404;-94
2022/09/17 01:16:01;;;;;;;;;1.00;1.00;;;;;12.39;59.57;101695.31;5017436;28;46394;-94
2022/09/17 01:18:32;;;;;;;;;1.50;1.50;;;;;12.41;59.68;101696.13;5017751;28;45450;-93
2022/09/17 01:21:08;;;;;;;;;1.00;1.00;;;;;12.37;59.39;101703.16;5001294;28;45468;-93
2022/09/17 01:23:48;;;;;;;;;2.25;2.25;;;;;12.36;59.18;101700.59;5017554;28;45435;-93
2022/09/17 01:26:34;;;;;;;;;2.25;2.00;;;;;12.39;59.63;101700.53;5017209;28;46946;-93
2022/09/17 01:29:20;;;;;;;;;1.00;1.00;;;;;12.36;59.56;101705.81;5017343;28;45255;-93
2022/09/17 01:31:53;;;;;;;;;2.25;1.00;;;;;12.35;59.67;101711.91;5000691;28;45280;-94
2022/09/17 01:35:14;;;;;;;;;2.00;1.00;;;;;12.34;59.30;101707.59;5000739;28;45479;-93
2022/09/17 01:38:01;;;;;;;;;1.00;1.00;;;;;12.37;59.52;101712.75;4996832;28;46288;-93
2022/09/17 01:40:36;;;;;;;;;2.00;1.00;;;;;12.39;59.58;101700.53;4977347;28;45922;-93
2022/09/17 01:43:26;;;;;;;;;2.50;1.00;;;;;12.40;59.07;101713.53;4961376;28;45359;-92
2022/09/17 01:45:57;;;;;;;;;2.00;0.25;;;;;12.40;58.97;101708.31;4977221;28;45466;-92
2022/09/17 01:48:29;;;;;;;;;3.00;1.00;;;;;12.44;59.24;101714.31;4977382;28;46075;-92
2022/09/17 01:50:58;;;;;;;;;1.50;1.50;;;;;12.43;58.50;101710.00;4977232;28;45801;-93
2022/09/17 01:53:28;;;;;;;;;1.00;1.00;;;;;12.44;59.22;101716.94;4976889;28;45345;-92
2022/09/17 01:55:57;;;;;;;;;1.50;1.00;;;;;12.39;58.60;101714.44;4993832;28;45430;-93
2022/09/17 01:58:27;;;;;;;;;1.00;1.00;;;;;12.37;58.95;101720.59;4960894;28;46049;-93
2022/09/17 02:00:57;;;;;;;;;0.75;0.75;;;;;12.36;58.60;101718.84;4961015;28;45464;-94
2022/09/17 02:03:31;;;;;;;;;1.00;1.00;;;;;12.34;59.05;101723.25;4961464;28;45325;-94
2022/09/17 02:06:12;;;;;;;;;1.50;0.00;;;;;12.35;58.68;101727.56;4960704;28;45317;-94
2022/09/17 02:08:54;;;;;;;;;0.00;0.00;;;;;12.32;59.09;101728.50;4960219;28;46250;-93
2022/09/17 02:11:19;;;;;;;;;2.00;0.00;;;;;12.33;58.76;101722.41;4999884;28;45379;-93
2022/09/17 02:14:05;;;;;;;;;2.25;0.75;;;;;12.30;58.92;101719.00;5019942;28;45337;-94
2022/09/17 02:16:36;;;;;;;;;0.25;0.00;;;;;12.29;58.51;101718.09;5022977;28;45370;-94
2022/09/17 02:19:09;;;;;;;;;0.00;0.00;;;;;12.30;58.54;101717.22;5060571;28;45351;-93
2022/09/17 02:21:49;;;;;;;;;2.00;0.00;;;;;12.29;58.54;101720.72;5060570;28;45367;-94
2022/09/17 02:24:23;;;;;;;;;0.00;0.00;;;;;12.28;59.04;101713.78;5094759;27;45379;-94
2022/09/17 02:26:59;;;;;;;;;0.50;0.50;;;;;12.25;58.55;101710.38;5078521;28;45309;-92
2022/09/17 02:29:33;;;;;;;;;1.00;1.00;;;;;12.24;58.96;101706.03;5094478;27;47510;-94
2022/09/17 02:31:58;;;;;;;;;0.00;0.00;;;;;12.25;58.79;101707.78;5060546;28;45322;-94
2022/09/17 02:34:26;;;;;;;;;0.50;0.50;;;;;12.27;59.10;101708.59;5080598;27;45240;-95
2022/09/17 02:36:52;;;;;;;;;0.25;0.25;;;;;12.29;58.99;101705.06;5080976;27;45372;-93
2022/09/17 02:39:17;;;;;;;;;0.75;0.75;;;;;12.29;58.84;101699.84;5081063;27;45400;-93
2022/09/17 02:41:46;;;;;;;;;0.00;0.00;;;;;12.28;58.41;101707.72;5080755;27;45342;-93
2022/09/17 02:44:44;;;;;;;;;1.00;1.00;;;;;12.26;58.60;101709.47;5081127;27;45299;-93
2022/09/17 02:47:46;;;;;;;;;4.25;0.00;;;;;12.23;58.75;101713.03;5080931;27;45396;-93
2022/09/17 02:50:34;;;;;;;;;1.00;1.00;;;;;12.23;58.37;101707.81;5098382;27;45707;-94
2022/09/17 02:53:30;;;;;;;;;1.00;1.00;;;;;12.28;58.64;101710.34;5063523;27;45561;-93
2022/09/17 02:56:20;;;;;;;;;0.00;0.00;;;;;12.24;58.43;101709.53;5079393;27;45413;-93
2022/09/17 02:59:26;;;;;;;;;1.25;0.00;;;;;12.23;58.93;101710.41;5078045;28;45325;-93
2022/09/17 03:01:59;;;;;;;;;3.00;0.00;;;;;12.19;58.79;101717.44;4976244;28;47263;-94
2022/09/17 03:04:27;;;;;;;;;2.00;0.25;;;;;12.16;59.04;101703.59;4975771;28;46126;-94
2022/09/17 03:06:53;;;;;;;;;1.75;0.75;;;;;12.15;59.52;101709.72;4976325;28;45412;-93
2022/09/17 03:09:18;;;;;;;;;2.50;1.00;;;;;12.13;59.02;101707.13;4976089;28;45364;-94
2022/09/17 03:11:43;;;;;;;;;1.00;0.75;;;;;12.12;59.37;101708.00;4976181;28;54577;-93
2022/09/17 03:14:09;;;;;;;;;0.00;0.00;;;;;12.06;59.36;101713.38;4976353;28;45526;-94
2022/09/17 03:16:34;;;;;;;;;0.00;0.00;;;;;12.01;58.94;101708.22;4975816;28;45801;-94
2022/09/17 03:18:59;;;;;;;;;2.75;1.00;;;;;11.98;59.25;101717.88;4959687;28;45534;-94
2022/09/17 03:21:25;;;;;;;;;1.00;1.00;;;;;11.96;59.95;101717.03;4959353;28;51456;-94
2022/09/17 03:23:51;;;;;;;;;0.75;0.75;;;;;11.92;59.61;101712.75;4975997;28;45407;-94
2022/09/17 03:26:16;;;;;;;;;0.00;0.00;;;;;11.89;59.70;101712.81;4975982;28;45577;-93
2022/09/17 03:28:42;;;;;;;;;0.00;0.00;;;;;11.89;60.23;101715.41;4975914;28;45272;-94
2022/09/17 03:31:07;;;;;;;;;0.75;0.00;;;;;11.90;59.15;101711.94;4975924;28;48373;-94
2022/09/17 03:33:32;;;;;;;;;0.25;0.25;;;;;11.88;60.14;101709.31;4959116;28;45461;-93
2022/09/17 03:35:58;;;;;;;;;0.25;0.25;;;;;11.89;59.19;101713.66;5020668;28;45408;-93
2022/09/17 03:38:23;;;;;;;;;0.00;0.00;;;;;11.89;59.89;101725.84;5056131;28;45363;-93
2022/09/17 03:40:59;;;;;;;;;1.00;1.00;;;;;11.89;59.70;101720.63;5039144;28;48169;-93
2022/09/17 03:43:25;;;;;;;;;0.00;0.00;;;;;11.90;59.53;101722.38;5055939;28;45688;-94
2022/09/17 03:45:51;;;;;;;;;0.00;0.00;;;;;11.90;59.56;101719.75;5039622;28;45456;-94
2022/09/17 03:48:16;;;;;;;;;1.00;1.00;;;;;11.86;59.84;101721.53;5038723;28;50786;-94
2022/09/17 03:50:42;;;;;;;;;0.25;0.25;;;;;11.87;59.90;101719.78;5022062;28;60433;-93
2022/09/17 03:53:07;;;;;;;;;0.00;0.00;;;;;11.86;59.83;101723.28;5039048;28;47201;-94
2022/09/17 03:55:33;;;;;;;;;1.50;0.75;;;;;11.84;59.91;101725.91;5039042;28;48298;-94
2022/09/17 03:57:58;;;;;;;;;0.00;0.00;;;;;11.86;60.01;101728.50;5040985;28;45249;-94
2022/09/17 04:00:24;;;;;;;;;0.00;0.00;;;;;11.85;60.42;101724.16;5059157;28;50257;-94
2022/09/17 04:02:49;;;;;;;;;1.00;1.00;;;;;11.85;60.62;101726.78;5059124;28;45303;-93
2022/09/17 04:05:15;;;;;;;;;2.00;0.00;;;;;11.79;59.86;101726.03;5077447;28;45365;-94
2022/09/17 04:07:40;;;;;;;;;1.75;0.00;;;;;11.77;60.70;101726.91;5077341;28;45477;-94
2022/09/17 04:10:07;;;;;;;;;2.50;1.00;;;;;11.77;60.46;101732.97;5042536;28;48766;-94
2022/09/17 04:12:32;;;;;;;;;1.00;0.50;;;;;11.74;61.20;101734.81;5059112;28;45676;-94
2022/09/17 04:14:57;;;;;;;;;1.50;1.00;;;;;11.69;61.35;101740.09;5059694;28;45769;-94
2022/09/17 04:17:23;;;;;;;;;2.75;1.00;;;;;11.63;60.90;101751.50;5076669;28;45441;-93
2022/09/17 04:19:48;;;;;;;;;1.75;1.00;;;;;11.63;61.44;101748.03;5077022;28;46095;-93
2022/09/17 04:22:14;;;;;;;;;1.00;1.00;;;;;11.56;61.62;101746.41;5059338;28;45336;-94
2022/09/17 04:24:40;;;;;;;;;0.00;0.00;;;;;11.48;62.46;101743.06;5058580;28;47796;-93
2022/09/17 04:27:05;;;;;;;;;3.00;1.00;;;;;11.40;62.20;101754.50;5058843;28;50655;-94
2022/09/17 04:29:31;;;;;;;;;2.00;1.00;;;;;11.38;62.63;101758.00;5059123;28;45380;-94
2022/09/17 04:31:56;;;;;;;;;2.00;1.00;;;;;11.36;62.43;101754.56;5076520;28;45417;-94
2022/09/17 04:34:21;;;;;;;;;1.00;1.00;;;;;11.33;63.08;101760.69;5078435;27;45311;-94
2022/09/17 04:36:47;;;;;;;;;0.00;0.00;;;;;11.34;62.89;101761.53;5079262;27;45233;-93
2022/09/17 04:39:12;;;;;;;;;1.00;1.00;;;;;11.34;62.56;101762.41;5078997;27;46194;-94
2022/09/17 04:41:38;;;;;;;;;1.25;1.00;;;;;11.36;62.65;101752.81;5062136;27;46949;-93
2022/09/17 04:44:03;;;;;;;;;1.25;1.25;;;;;11.36;62.76;101759.78;5079063;27;45175;-94
2022/09/17 04:46:28;;;;;;;;;0.50;0.00;;;;;11.34;63.10;101762.41;5078586;27;47779;-93
2022/09/17 04:48:54;;;;;;;;;1.00;1.00;;;;;11.31;63.01;101757.25;5079677;27;45317;-93
2022/09/17 04:51:19;;;;;;;;;1.00;1.00;;;;;11.32;62.50;101756.34;5082618;27;45309;-94
2022/09/17 04:53:44;;;;;;;;;1.00;0.00;;;;;11.31;63.23;101759.84;5082738;27;45215;-94
2022/09/17 04:56:10;;;;;;;;;2.00;1.00;;;;;11.31;63.46;101764.19;5079164;27;45358;-94
2022/09/17 04:58:35;;;;;;;;;0.50;0.25;;;;;11.27;63.20;101765.97;5061952;28;46458;-93
2022/09/17 05:01:01;;;;;;;;;0.00;0.00;;;;;11.22;63.41;101773.88;5062009;28;45358;-95
2022/09/17 05:03:26;;;;;;;;;1.00;1.00;;;;;11.15;63.65;101771.41;5062214;28;45353;-94
2022/09/17 05:05:51;;;;;;;;;1.75;1.00;;;;;11.08;64.49;101774.97;5061666;28;57883;-94
2022/09/17 05:08:17;;;;;;;;;1.00;1.00;;;;;11.03;64.01;101780.22;5061204;28;47764;-94
2022/09/17 05:10:42;;;;;;;;;2.25;0.50;;;;;11.00;64.08;101770.72;5078804;28;45386;-94
2022/09/17 05:13:10;;;;;;;;;0.00;0.00;;;;;11.01;64.15;101767.25;5062034;28;45361;-95
2022/09/17 05:15:36;;;;;;;;;1.00;1.00;;;;;11.00;64.61;101775.94;5061507;28;45212;-95
2022/09/17 05:18:02;;;;;;;;;1.00;1.00;;;;;11.00;64.90;101775.94;5082493;28;45383;-96
2022/09/17 05:20:27;;;;;;;;;6.25;1.00;;;;;11.00;64.62;101775.09;5080842;28;45301;-93
2022/09/17 05:22:53;;;;;;;;;1.00;1.00;;;;;11.00;64.61;101778.53;5062927;28;45171;-94
2022/09/17 05:25:23;;;;;;;;;3.00;1.75;;;;;11.01;64.26;101785.50;5062581;28;69615;-91
2022/09/17 05:27:48;;;;;;;;;3.00;1.75;;;;;11.01;64.77;101788.09;5080566;28;46967;-96
2022/09/17 05:30:14;;;;;;;;;2.25;2.00;;;;;10.99;65.03;101788.97;5077634;28;45404;-96
2022/09/17 05:32:46;;;;;;;;;2.00;1.00;;;;;10.99;64.88;101788.97;5073430;27;45281;-96
2022/09/17 05:35:11;;;;;;;;;2.50;1.75;;;;;10.98;65.23;101795.94;5106203;27;45593;-91
2022/09/17 05:37:36;;;;;;;;;2.75;1.00;;;;;10.97;64.58;101789.00;5101416;27;45584;-96
2022/09/17 05:40:04;;;;;;;;;1.00;1.00;;;;;11.00;64.50;101788.97;5102682;27;45492;-95
2022/09/17 05:42:29;;;;;;;;;5.50;1.00;;;;;10.98;64.62;101795.09;5106334;27;45364;-95
2022/09/17 05:44:55;;;;;;;;;2.25;1.50;;;;;10.95;64.86;101792.50;5081481;27;47212;-93
2022/09/17 05:47:20;;;;;;;;;2.25;1.25;;;;;10.95;64.93;101785.56;5082547;27;74067;-94
2022/09/17 05:49:45;;;;;;;;;3.25;1.00;;;;;10.98;64.70;101787.28;5099318;27;57148;-93
2022/09/17 05:52:11;;;;;;;;;1.00;1.00;;;;;11.04;64.62;101787.19;5098458;27;70297;-93
2022/09/17 05:54:36;;;;;;;;;1.00;1.00;;;;;11.09;64.88;101785.38;5099722;27;45361;-93
2022/09/17 05:57:01;;;;;;;;;1.50;0.00;;;;;11.11;64.48;101793.19;5072670;28;70313;-96
2022/09/17 05:59:27;;;;;;;;;2.75;1.00;;;;;11.14;64.36;101793.13;5088188;28;45209;-96
2022/09/17 06:01:52;;;;;;;;;1.00;1.00;;;;;11.19;64.49;101799.97;5084921;28;63002;-95
2022/09/17 06:04:17;;;;;;;;;1.50;1.50;;;;;11.21;64.47;101797.34;5079834;28;45361;-96
2022/09/17 06:06:43;;;;;;;;;3.50;1.00;;;;;11.21;64.53;101793.00;5060784;28;47601;-94
2022/09/17 06:09:09;;;;;;;;;1.00;1.00;;;;;11.26;64.02;101794.69;5060323;28;72155;-95
2022/09/17 06:11:35;;;;;;;;;1.25;1.00;;;;;11.29;63.67;101808.56;5079432;28;45357;-94
2022/09/17 06:14:01;;;;;;;;;1.00;1.00;;;;;11.30;63.69;101807.66;5078576;28;45396;-93
2022/09/17 06:16:26;;;;;;;;;1.00;1.00;;;;;11.32;63.31;101800.66;5078934;28;46240;-89
2022/09/17 06:18:51;;;;;;;;;1.75;1.75;;;;;11.36;63.80;101804.94;5059461;28;73426;-92
2022/09/17 06:21:18;;;;;;;;;3.75;0.75;;;;;11.37;63.38;101811.03;5078699;28;45351;-92
2022/09/17 06:23:43;;;;;;;;;0.25;0.00;;;;;11.37;63.20;101811.88;5078608;28;45371;-95
2022/09/17 06:26:09;;;;;;;;;0.50;0.50;;;;;11.39;63.44;101810.13;5060453;28;47599;-94
2022/09/17 06:28:34;;;;;;;;;1.75;1.75;;;;;11.41;63.31;101810.09;5078374;28;45313;-95
2022/09/17 06:31:01;;;;;;;;;2.50;1.75;;;;;11.43;63.29;101813.53;5066862;28;45401;-96
2022/09/17 06:33:28;;;;;;;;;1.00;1.00;;;;;11.47;63.55;101814.34;5061171;28;45306;-94
2022/09/17 06:36:03;;;;;;;;;0.00;0.00;;;;;11.46;63.15;101818.72;5078367;28;46158;-94
2022/09/17 06:38:30;;;;;;;;;1.00;1.00;;;;;11.44;63.15;101823.09;5078541;28;45258;-92
2022/09/17 06:40:56;;;;;;;;;1.00;1.00;;;;;11.38;62.37;101816.19;5060816;28;45274;-93
2022/09/17 06:43:21;;;;;;;;;1.00;1.00;;;;;11.35;62.91;101824.09;5078365;28;45482;-95
2022/09/17 06:45:57;;;;;;;;;2.00;1.00;;;;;11.28;62.58;101832.88;5078370;28;46092;-93
2022/09/17 06:48:23;;;;;;;;;1.75;1.00;;;;;11.30;63.10;101832.88;5078557;28;45415;-93
2022/09/17 06:50:49;;;;;;;;;0.00;0.00;;;;;11.30;62.92;101825.03;5060937;28;45379;-93
2022/09/17 06:53:15;;;;;;;;;2.50;1.00;;;;;11.35;62.64;101831.06;5079792;28;45405;-93
2022/09/17 06:55:40;;;;;;;;;1.00;1.00;;;;;11.37;62.89;101835.34;5078069;28;72204;-96
2022/09/17 06:58:05;;;;;;;;;1.25;1.00;;;;;11.43;62.36;101824.81;5059850;28;45437;-92
2022/09/17 07:00:31;;;;;;;;;1.00;1.00;;;;;11.47;62.56;101822.19;5077487;28;70658;-93
2022/09/17 07:02:57;;;;;;;;;3.25;1.25;;;;;11.46;62.50;101830.88;5077764;28;69700;-90
2022/09/17 07:05:23;;;;;;;;;0.25;0.25;;;;;11.50;63.05;101841.25;5043198;28;46313;-92
2022/09/17 07:07:48;;;;;;;;;1.50;1.50;;;;;11.50;62.38;101833.44;5077481;28;45707;-86
2022/09/17 07:10:14;;;;;;;;;1.25;1.00;;;;;11.50;62.24;101836.03;5075317;28;44726;-92
2022/09/17 07:12:40;;;;;;;;;2.00;2.00;;;;;11.50;61.82;101836.03;5077940;28;45411;-89
2022/09/17 07:15:06;;;;;;;;;1.50;0.00;;;;;11.56;61.66;101830.72;5077477;28;45447;-90
2022/09/17 07:17:32;;;;;;;;;1.00;1.00;;;;;11.65;61.51;101824.50;5076059;28;45320;-89
2022/09/17 07:19:57;;;;;;;;;0.00;0.00;;;;;11.71;60.75;101824.41;5077480;28;45319;-92
2022/09/17 07:22:24;;;;;;;;;3.00;1.00;;;;;11.73;60.28;101829.59;5081132;27;67141;-92
2022/09/17 07:24:49;;;;;;;;;3.75;0.50;;;;;11.78;60.70;101823.41;5077916;27;46723;-95
2022/09/17 07:27:15;;;;;;;;;0.00;0.00;;;;;11.87;60.24;101839.78;5108212;27;67067;-92
2022/09/17 07:29:40;;;;;;;;;1.25;0.00;;;;;11.91;60.07;101833.69;5086694;27;45318;-94
2022/09/17 07:32:06;;;;;;;;;1.50;0.00;;;;;11.97;59.49;101828.34;5081067;27;67053;-96
2022/09/17 07:34:31;;;;;;;;;0.00;0.00;;;;;12.05;58.97;101839.50;5100841;27;46152;-95
2022/09/17 07:36:57;;;;;;;;;1.00;1.00;;;;;12.10;58.67;101831.59;5075046;28;45391;-96
2022/09/17 07:39:22;;;;;;;;;3.00;1.00;;;;;12.13;58.21;101831.56;5082324;28;45300;-96
2022/09/17 07:41:47;;;;;;;;;1.00;0.75;;;;;12.20;58.74;101825.31;5078074;28;45257;-96
2022/09/17 07:44:13;;;;;;;;;1.75;0.00;;;;;12.28;58.34;101825.19;5079860;28;55991;-96
2022/09/17 07:46:38;;;;;;;;;0.00;0.00;;;;;12.33;57.01;101828.56;5077392;28;72939;-92
2022/09/17 07:49:04;;;;;;;;;0.25;0.00;;;;;12.37;56.77;101830.25;5076174;28;63643;-87
2022/09/17 07:51:29;;;;;;;;;1.00;0.00;;;;;12.41;57.07;101831.91;5059400;28;45292;-88
2022/09/17 07:53:56;;;;;;;;;1.00;1.00;;;;;12.50;56.65;101831.72;5076171;28;56651;-91
2022/09/17 07:56:22;;;;;;;;;0.00;0.00;;;;;12.61;57.10;101833.25;5076627;28;45392;-89
2022/09/17 07:58:48;;;;;;;;;0.50;0.00;;;;;12.71;57.45;101829.59;5092913;28;45300;-96
2022/09/17 08:01:17;;;;;;;;;1.00;0.00;;;;;12.77;56.88;101827.69;5321858;22;66994;-96
2022/09/17 08:06:15;;;;;;;;;1.25;0.00;;;;;12.95;55.46;101825.59;5405824;22;45527;-96
2022/09/17 08:13:52;;;;;;;;;4.00;0.00;;;;;13.17;54.44;101833.84;5662189;22;46571;-79
2022/09/17 08:16:18;;;;;;;;;1.25;0.00;;;;;13.25;54.90;101836.28;5053579;28;45348;-79
2022/09/17 08:18:46;;;;;;;;;2.00;0.00;;;;;13.30;54.44;101834.41;5036921;28;45527;-79
2022/09/17 08:21:13;;;;;;;;;1.00;0.00;;;;;13.35;54.46;101840.41;5054746;28;45559;-79
2022/09/17 08:23:40;;;;;;;;;0.00;0.00;;;;;13.43;54.20;101838.50;5038592;28;45458;-79
2022/09/17 08:26:07;;;;;;;;;1.50;0.00;;;;;13.51;54.41;101847.00;5058213;28;45403;-79
2022/09/17 08:28:33;;;;;;;;;0.00;0.00;;;;;13.55;53.65;101838.19;5057053;28;45874;-79
2022/09/17 08:31:08;;;;;;;;;0.75;0.00;;;;;13.60;53.67;101845.94;5058160;28;45457;-79
2022/09/17 08:33:36;;;;;;;;;0.00;0.00;;;;;13.65;53.93;101841.47;5070547;28;70499;-79
2022/09/17 08:36:02;;;;;;;;;0.25;0.00;;;;;13.71;53.42;101848.31;5060099;28;45718;-79
2022/09/17 08:38:29;;;;;;;;;0.00;0.00;;;;;13.77;53.96;101848.16;5058400;28;45424;-79
2022/09/17 08:41:09;;;;;;;;;0.00;0.00;;;;;13.87;54.06;101851.38;5059069;28;45447;-79
2022/09/17 08:43:51;;;;;;;;;0.00;0.00;;;;;13.95;53.79;101854.69;5057913;28;46203;-80
2022/09/17 08:46:16;;;;;;;;;0.00;0.00;;;;;14.04;53.34;101861.44;5035304;28;45486;-81
2022/09/17 08:49:31;;;;;;;;;1.00;0.00;;;;;14.12;53.56;101860.34;5026822;28;58094;-81
2022/09/17 08:52:08;;;;;;;;;5.00;0.00;;;;;14.18;53.43;101872.41;4952080;28;45396;-81
2022/09/17 08:54:54;;;;;;;;;0.00;0.00;;;;;14.19;53.29;101858.44;4976369;28;45895;-84
2022/09/17 08:57:55;;;;;;;;;1.00;0.00;;;;;14.24;53.50;101863.53;4976791;28;45588;-84
2022/09/17 09:00:21;;;;;;;;;0.00;0.00;;;;;14.31;53.25;101868.56;4937963;28;45530;-83
2022/09/17 09:03:05;;;;;;;;;0.00;0.00;;;;;14.37;53.26;101867.53;4937893;28;45444;-83
2022/09/17 09:05:42;;;;;;;;;0.00;0.00;;;;;14.41;53.47;101863.09;4937661;28;47211;-82
2022/09/17 09:08:16;;;;;;;;;0.00;0.00;;;;;14.48;53.17;101859.41;4937513;28;45399;-82
2022/09/17 09:10:48;;;;;;;;;1.00;0.00;;;;;14.54;52.80;101861.84;4920662;28;45487;-82
2022/09/17 09:13:16;;;;;;;;;1.00;0.00;;;;;14.57;52.66;101859.19;4937052;28;45514;-82
2022/09/17 09:15:56;;;;;;;;;1.00;0.00;;;;;14.60;52.33;101866.97;4943181;28;45746;-82
2022/09/17 09:18:25;;;;;;;;;0.00;0.00;;;;;14.69;51.91;101871.97;4924116;28;45622;-82
2022/09/17 09:20:58;;;;;;;;;0.00;0.00;;;;;14.83;51.17;101870.69;4935527;28;45500;-82
2022/09/17 09:23:44;;;;;;;;;0.00;0.00;;;;;15.04;51.88;101866.59;4954299;28;45439;-81
2022/09/17 09:26:17;;;;;;;;;3.00;0.00;;;;;15.25;50.63;101867.72;4958022;28;45847;-82
2022/09/17 09:29:04;;;;;;;;;1.00;0.00;;;;;15.40;50.17;101880.38;4984892;28;45917;-82
2022/09/17 09:31:44;;;;;;;;;0.00;0.00;;;;;15.58;50.21;101878.06;4986618;28;45403;-82
2022/09/17 09:34:11;;;;;;;;;0.00;0.00;;;;;15.69;49.97;101886.44;4998588;28;45430;-82
2022/09/17 09:36:37;;;;;;;;;0.00;0.00;;;;;15.80;49.25;101883.50;5004514;28;46667;-82
2022/09/17 09:39:22;;;;;;;;;1.00;0.00;;;;;15.85;48.62;101885.06;5058083;28;45301;-83
2022/09/17 09:41:53;;;;;;;;;0.00;0.00;;;;;15.91;48.77;101889.25;5039847;28;45394;-82
2022/09/17 09:44:18;;;;;;;;;0.00;0.00;;;;;15.95;48.22;101885.63;5056562;28;45453;-83
2022/09/17 09:47:16;;;;;;;;;0.00;0.00;;;;;15.95;47.30;101887.41;5057125;28;56067;-82
2022/09/17 09:49:59;;;;;;;;;0.00;0.00;;;;;15.91;47.15;101891.88;5049033;28;45375;-80
2022/09/17 09:53:18;;;;;;;;;0.50;0.00;;;;;15.89;47.33;101874.47;5043508;28;45594;-79
2022/09/17 09:55:58;;;;;;;;;0.00;0.00;;;;;15.89;46.35;101875.34;5014336;28;45542;-79
2022/09/17 09:58:39;;;;;;;;;0.00;0.00;;;;;15.97;47.20;101875.97;5013910;28;45589;-79
2022/09/17 10:01:12;;;;;;;;;1.50;0.00;;;;;16.13;46.41;101878.06;5015273;28;45361;-79
2022/09/17 10:03:40;;;;;;;;;0.00;0.00;;;;;16.18;45.53;101873.50;5015364;28;45383;-79
2022/09/17 10:06:07;;;;;;;;;0.00;0.00;;;;;16.21;45.46;101876.00;5014648;28;45606;-80
2022/09/17 10:08:35;;;;;;;;;0.50;0.00;;;;;16.26;45.67;101869.69;5015161;28;45490;-80
2022/09/17 10:11:02;;;;;;;;;1.00;0.00;;;;;16.36;45.71;101872.88;4995033;28;45347;-80
2022/09/17 10:13:34;;;;;;;;;1.00;0.00;;;;;16.43;45.66;101876.13;4995343;28;45414;-80
2022/09/17 10:16:24;;;;;;;;;3.00;0.00;;;;;16.50;45.31;101877.63;4998053;28;45509;-80
2022/09/17 10:19:13;;;;;;;;;0.00;0.00;;;;;16.59;45.43;101877.28;5014892;28;45449;-80
2022/09/17 10:21:41;;;;;;;;;0.00;0.00;;;;;16.68;45.24;101880.50;5014931;28;45626;-79
2022/09/17 10:24:24;;;;;;;;;0.75;0.00;;;;;16.75;44.64;101863.59;5014918;28;45370;-80
2022/09/17 10:26:50;;;;;;;;;0.00;0.00;;;;;16.87;44.01;101860.53;5014496;28;45386;-80
2022/09/17 10:29:19;;;;;;;;;0.00;0.00;;;;;17.07;44.30;101872.06;5011189;28;48570;-81
2022/09/17 10:31:52;;;;;;;;;0.75;0.75;;;;;17.22;43.32;101866.25;5057017;28;45715;-81
2022/09/17 10:34:22;;;;;;;;;0.00;0.00;;;;;17.28;42.96;101867.78;5056285;28;45564;-80
2022/09/17 10:36:48;;;;;;;;;0.00;0.00;;;;;17.21;42.25;101870.63;5055674;28;45486;-80
2022/09/17 10:39:26;;;;;;;;;2.75;0.00;;;;;17.21;42.15;101869.78;5039008;28;45411;-80
2022/09/17 10:41:56;;;;;;;;;0.00;0.00;;;;;17.27;42.84;101861.63;5056521;28;45651;-80
2022/09/17 10:44:23;;;;;;;;;1.00;0.00;;;;;17.44;42.96;101863.63;5056929;28;45340;-80
2022/09/17 10:46:50;;;;;;;;;0.00;0.00;;;;;17.66;42.19;101855.69;5037474;28;45350;-81
2022/09/17 10:50:04;;;;;;;;;0.00;0.00;;;;;17.75;39.23;101862.38;5038148;28;45665;-80
2022/09/17 10:52:37;;;;;;;;;0.00;0.00;;;;;17.80;41.02;101844.59;4986325;28;45466;-79
2022/09/17 10:55:21;;;;;;;;;0.00;0.00;;;;;17.94;40.15;101851.94;4994437;28;45374;-79
2022/09/17 10:57:55;;;;;;;;;0.00;0.00;;;;;18.17;40.51;101857.09;4994193;28;45350;-80
2022/09/17 11:00:22;;;;;;;;;0.25;0.00;;;;;18.38;40.27;101865.84;4993573;28;46282;-83
2022/09/17 11:03:31;;;;;;;;;1.00;0.00;;;;;18.32;38.93;101857.38;4977901;28;45318;-83
2022/09/17 11:06:14;;;;;;;;;0.00;0.00;;;;;18.30;39.12;101849.53;4977592;28;45373;-82
2022/09/17 11:09:03;;;;;;;;;0.00;0.00;;;;;18.31;38.20;101843.34;4992861;28;45450;-81
2022/09/17 11:11:44;;;;;;;;;0.00;0.00;;;;;18.27;38.54;101827.72;4994307;28;45369;-79
2022/09/17 11:14:34;;;;;;;;;0.00;0.00;;;;;18.25;38.37;101826.94;4976924;28;45419;-79
2022/09/17 11:17:12;;;;;;;;;1.00;0.00;;;;;18.30;38.21;101823.16;4994148;28;45440;-80
2022/09/17 11:19:44;;;;;;;;;0.00;0.00;;;;;18.58;38.00;101824.56;4977249;28;45394;-80
2022/09/17 11:22:18;;;;;;;;;0.00;0.00;;;;;18.95;37.31;101807.06;4993875;28;46592;-80
2022/09/17 11:25:10;;;;;;;;;0.00;0.00;;;;;19.51;37.20;101815.81;4993434;28;45513;-79
2022/09/17 11:28:01;;;;;;;;;0.00;0.00;;;;;21.58;35.88;101813.63;4952087;28;45456;-80
2022/09/17 11:30:32;;;;;;;;;0.00;0.00;;;;;22.58;33.67;101812.94;4938973;28;45463;-80
2022/09/17 11:33:22;;;;;;;;;0.50;0.00;;;;;22.02;32.37;101820.75;4944225;28;46557;-79
2022/09/17 11:35:59;;;;;;;;;0.50;0.00;;;;;22.06;33.09;101821.41;4938000;28;45643;-80
2022/09/17 11:38:27;;;;;;;;;2.00;0.00;;;;;24.97;33.09;101815.53;4937965;28;45445;-80
2022/09/17 11:41:15;;;;;;;;;0.00;0.00;;;;;25.23;30.39;101819.81;4960236;28;45852;-80
2022/09/17 11:43:58;;;;;;;;;0.00;0.00;;;;;23.88;30.43;101827.50;4939518;28;46645;-82
2022/09/17 11:46:38;;;;;;;;;0.00;0.00;;;;;22.76;30.86;101833.00;4937987;28;45405;-81
2022/09/17 11:49:10;;;;;;;;;0.00;0.00;;;;;24.59;32.27;101828.00;4954592;28;45468;-82
2022/09/17 11:51:39;;;;;;;;;1.50;0.00;;;;;27.56;30.42;101833.63;4938495;28;45421;-80